createdAt,value
2022-12-18T00:00:25.758Z,37.90
2022-12-18T00:03:16.604Z,31.30
2022-12-18T00:05:53.467Z,31.20
2022-12-18T00:08:22.152Z,28.70
2022-12-18T00:10:50.822Z,33.10
2022-12-18T00:13:19.894Z,32.70
2022-12-18T00:15:48.707Z,29.80
2022-12-18T00:18:20.583Z,28.60
2022-12-18T00:20:49.734Z,22.80
2022-12-18T00:23:18.592Z,24.80
2022-12-18T00:25:47.303Z,28.80
2022-12-18T00:28:15.992Z,30.80
2022-12-18T00:30:44.785Z,23.70
2022-12-18T00:33:13.465Z,22.90
2022-12-18T00:35:42.084Z,28.60
2022-12-18T00:38:12.261Z,25.50
2022-12-18T00:40:41.015Z,23.70
2022-12-18T00:43:13.067Z,24.00
2022-12-18T00:45:42.408Z,21.90
2022-12-18T00:48:11.399Z,21.00
2022-12-18T00:50:40.074Z,18.10
2022-12-18T00:53:12.854Z,22.80
2022-12-18T00:55:47.054Z,21.90
2022-12-18T00:58:18.234Z,23.60
2022-12-18T01:00:47.230Z,24.80
2022-12-18T01:03:16.272Z,15.40
2022-12-18T01:05:45.974Z,23.40
2022-12-18T01:08:14.559Z,22.60
2022-12-18T01:10:45.079Z,27.10
2022-12-18T01:13:13.850Z,22.60
2022-12-18T01:15:50.874Z,25.10
2022-12-18T01:18:19.555Z,29.20
2022-12-18T01:20:48.304Z,18.70
2022-12-18T01:23:17.180Z,23.00
2022-12-18T01:25:45.954Z,25.40
2022-12-18T01:28:14.709Z,25.60
2022-12-18T01:30:43.431Z,21.60
2022-12-18T01:33:12.186Z,28.80
2022-12-18T01:35:44.714Z,22.70
2022-12-18T01:40:42.603Z,21.60
2022-12-18T01:43:12.307Z,21.80
2022-12-18T01:45:41.223Z,16.10
2022-12-18T01:48:10.814Z,27.10
2022-12-18T01:50:44.305Z,24.40
2022-12-18T01:53:18.005Z,21.20
2022-12-18T01:55:56.451Z,22.00
2022-12-18T01:58:37.029Z,26.60
2022-12-18T02:01:05.868Z,28.40
2022-12-18T02:03:35.262Z,34.10
2022-12-18T02:06:30.915Z,28.10
2022-12-18T02:09:28.455Z,25.80
2022-12-18T02:12:26.667Z,27.70
2022-12-18T02:15:43.416Z,27.60
2022-12-18T02:18:42.073Z,22.90
2022-12-18T02:21:50.931Z,21.90
2022-12-18T02:24:33.469Z,23.50
2022-12-18T02:27:07.871Z,22.50
2022-12-18T02:30:02.484Z,27.40
2022-12-18T02:32:38.415Z,21.20
2022-12-18T02:35:12.214Z,24.90
2022-12-18T02:37:45.461Z,25.70
2022-12-18T02:42:44.398Z,25.10
2022-12-18T02:45:13.463Z,25.90
2022-12-18T02:47:48.688Z,28.70
2022-12-18T02:50:39.412Z,23.10
2022-12-18T02:54:01.296Z,27.20
2022-12-18T02:56:39.752Z,23.80
2022-12-18T02:59:24.567Z,22.10
2022-12-18T03:02:12.662Z,25.10
2022-12-18T03:04:57.492Z,26.80
2022-12-18T03:07:42.890Z,24.30
2022-12-18T03:10:18.341Z,30.60
2022-12-18T03:13:00.173Z,25.50
2022-12-18T03:15:53.054Z,25.50
2022-12-18T03:18:38.094Z,24.00
2022-12-18T03:21:09.380Z,29.50
2022-12-18T03:23:51.562Z,29.90
2022-12-18T03:26:26.687Z,25.40
2022-12-18T03:29:05.934Z,24.30
2022-12-18T03:31:34.950Z,23.70
2022-12-18T03:34:12.653Z,27.00
2022-12-18T03:36:45.020Z,25.50
2022-12-18T03:39:15.011Z,27.60
2022-12-18T03:42:03.568Z,29.40
2022-12-18T03:45:15.685Z,29.10
2022-12-18T03:48:07.497Z,23.10
2022-12-18T03:51:06.896Z,26.10
2022-12-18T03:53:47.302Z,19.50
2022-12-18T03:56:18.476Z,28.90
2022-12-18T03:58:49.210Z,30.90
2022-12-18T04:01:35.707Z,29.10
2022-12-18T04:04:07.435Z,19.80
2022-12-18T04:06:40.075Z,22.70
2022-12-18T04:09:09.626Z,27.50
2022-12-18T04:11:45.312Z,28.70
2022-12-18T04:14:18.231Z,22.10
2022-12-18T04:16:48.227Z,35.90
2022-12-18T04:19:18.204Z,28.20
2022-12-18T04:21:49.311Z,32.90
2022-12-18T04:24:18.326Z,29.40
2022-12-18T04:26:57.250Z,21.00
2022-12-18T04:31:59.213Z,28.90
2022-12-18T04:34:28.610Z,22.50
2022-12-18T04:36:57.544Z,16.90
2022-12-18T04:39:27.592Z,26.80
2022-12-18T04:42:04.520Z,35.40
2022-12-18T04:47:02.233Z,32.90
2022-12-18T04:49:30.884Z,30.50
2022-12-18T04:51:59.732Z,30.70
2022-12-18T04:54:28.600Z,21.90
2022-12-18T04:57:02.668Z,36.20
2022-12-18T04:59:32.990Z,34.90
2022-12-18T05:02:02.000Z,31.70
2022-12-18T05:04:31.219Z,35.50
2022-12-18T05:07:00.238Z,30.60
2022-12-18T05:09:29.095Z,19.60
2022-12-18T05:12:14.917Z,36.40
2022-12-18T05:14:48.802Z,30.20
2022-12-18T05:17:18.784Z,32.10
2022-12-18T05:19:48.417Z,32.70
2022-12-18T05:22:20.468Z,34.60
2022-12-18T05:24:50.108Z,33.60
2022-12-18T05:27:21.865Z,30.80
2022-12-18T05:29:51.756Z,28.30
2022-12-18T05:32:20.813Z,31.30
2022-12-18T05:34:50.790Z,34.30
2022-12-18T05:37:19.865Z,28.70
2022-12-18T05:39:49.877Z,31.40
2022-12-18T05:42:19.406Z,33.90
2022-12-18T05:44:48.610Z,27.30
2022-12-18T05:47:17.908Z,38.00
2022-12-18T05:49:46.747Z,36.00
2022-12-18T05:52:15.918Z,28.10
2022-12-18T05:54:46.691Z,33.20
2022-12-18T05:57:15.619Z,41.30
2022-12-18T05:59:44.805Z,34.90
2022-12-18T06:02:13.763Z,37.80
2022-12-18T06:04:42.672Z,29.50
2022-12-18T06:07:15.083Z,28.90
2022-12-18T06:12:13.504Z,31.60
2022-12-18T06:14:42.662Z,37.20
2022-12-18T06:17:12.085Z,38.50
2022-12-18T06:19:40.985Z,34.70
2022-12-18T06:22:09.783Z,37.40
2022-12-18T06:24:38.525Z,32.40
2022-12-18T06:27:07.328Z,43.20
2022-12-18T06:29:35.847Z,42.10
2022-12-18T06:32:04.794Z,36.20
2022-12-18T06:34:34.772Z,25.70
2022-12-18T06:37:03.777Z,35.70
2022-12-18T06:39:33.658Z,40.70
2022-12-18T06:42:06.345Z,42.20
2022-12-18T06:44:34.980Z,45.30
2022-12-18T06:47:03.934Z,41.80
2022-12-18T06:49:34.242Z,37.10
2022-12-18T06:52:03.627Z,35.20
2022-12-18T06:54:32.822Z,42.80
2022-12-18T06:57:02.129Z,37.10
2022-12-18T06:59:31.315Z,40.80
2022-12-18T07:02:00.234Z,38.30
2022-12-18T07:04:34.415Z,37.80
2022-12-18T07:07:03.431Z,37.10
2022-12-18T07:09:32.195Z,30.10
2022-12-18T07:12:01.099Z,33.30
2022-12-18T07:14:29.733Z,29.90
2022-12-18T07:16:58.685Z,35.00
2022-12-18T07:19:27.746Z,36.00
2022-12-18T07:21:56.473Z,36.10
2022-12-18T07:24:25.217Z,41.40
2022-12-18T07:26:53.918Z,37.10
2022-12-18T07:29:22.817Z,32.10
2022-12-18T07:31:51.474Z,38.10
2022-12-18T07:34:20.413Z,35.20
2022-12-18T07:36:49.574Z,42.90
2022-12-18T07:39:18.144Z,37.50
2022-12-18T07:43:06.237Z,33.20
2022-12-18T07:48:20.387Z,33.30
2022-12-18T07:50:49.287Z,44.50
2022-12-18T07:53:18.015Z,32.90
2022-12-18T07:56:25.089Z,33.80
2022-12-18T07:58:41.729Z,32.70
2022-12-18T08:01:26.280Z,39.60
2022-12-18T08:04:09.040Z,41.60
2022-12-18T08:08:45.551Z,33.50
2022-12-18T08:14:54.264Z,25.40
2022-12-18T08:17:40.274Z,42.40
2022-12-18T08:20:22.305Z,33.50
2022-12-18T08:23:28.616Z,40.10
2022-12-18T08:26:51.834Z,37.20
2022-12-18T08:29:50.301Z,46.90
2022-12-18T08:32:19.384Z,44.30
2022-12-18T08:34:48.055Z,39.90
2022-12-18T08:37:17.050Z,38.20
2022-12-18T08:39:46.668Z,41.50
2022-12-18T08:42:34.380Z,28.70
2022-12-18T08:45:04.901Z,37.10
2022-12-18T08:47:33.885Z,37.30
2022-12-18T08:50:03.062Z,36.90
2022-12-18T08:52:33.941Z,47.30
2022-12-18T08:55:02.573Z,27.60
2022-12-18T09:00:41.336Z,29.20
2022-12-18T09:03:19.091Z,34.70
2022-12-18T09:05:48.177Z,30.30
2022-12-18T09:08:16.876Z,33.10
2022-12-18T09:10:47.217Z,30.80
2022-12-18T09:13:17.481Z,26.90
2022-12-18T09:15:52.395Z,32.30
2022-12-18T09:18:23.586Z,31.70
2022-12-18T09:20:54.127Z,30.80
2022-12-18T09:23:23.268Z,31.40
2022-12-18T09:25:51.741Z,26.80
2022-12-18T09:28:20.530Z,32.60
2022-12-18T09:30:50.758Z,40.00
2022-12-18T09:33:19.641Z,33.50
2022-12-18T09:35:48.493Z,31.60
2022-12-18T09:38:20.797Z,39.90
2022-12-18T09:40:57.283Z,40.30
2022-12-18T09:43:44.623Z,25.90
2022-12-18T09:46:27.298Z,37.20
2022-12-18T09:49:02.341Z,42.00
2022-12-18T09:51:44.818Z,38.60
2022-12-18T09:54:25.208Z,41.90
2022-12-18T09:56:55.359Z,40.10
2022-12-18T09:59:36.878Z,42.50
2022-12-18T10:02:23.340Z,41.00
2022-12-18T10:05:15.453Z,42.70
2022-12-18T10:08:02.281Z,46.40
2022-12-18T10:10:34.191Z,36.80
2022-12-18T10:13:37.336Z,41.60
2022-12-18T10:16:57.802Z,39.60
2022-12-18T10:19:29.064Z,44.60
2022-12-18T10:22:24.990Z,37.50
2022-12-18T10:25:03.531Z,37.70
2022-12-18T10:27:33.088Z,29.30
2022-12-18T10:30:14.212Z,51.10
2022-12-18T10:32:43.652Z,44.10
2022-12-18T10:35:29.961Z,40.90
2022-12-18T10:38:01.720Z,35.70
2022-12-18T10:40:31.024Z,35.60
2022-12-18T10:43:12.711Z,36.10
2022-12-18T10:45:43.306Z,31.10
2022-12-18T10:48:23.780Z,30.10
2022-12-18T10:51:12.240Z,33.30
2022-12-18T10:53:44.524Z,33.00
2022-12-18T10:56:13.521Z,32.20
2022-12-18T10:58:42.563Z,28.70
2022-12-18T11:01:21.336Z,35.00
2022-12-18T11:04:01.833Z,31.90
2022-12-18T11:06:31.291Z,34.40
2022-12-18T11:09:23.284Z,31.10
2022-12-18T11:11:55.055Z,29.10
2022-12-18T11:14:32.012Z,32.10
2022-12-18T11:17:31.709Z,25.60
2022-12-18T11:20:04.468Z,24.90
2022-12-18T11:22:36.535Z,29.50
2022-12-18T11:25:34.499Z,30.90
2022-12-18T11:28:23.693Z,29.10
2022-12-18T11:31:19.047Z,26.10
2022-12-18T11:34:30.266Z,26.00
2022-12-18T11:37:02.303Z,19.40
2022-12-18T11:39:58.110Z,32.70
2022-12-18T11:42:46.404Z,26.60
2022-12-18T11:45:15.162Z,34.70
2022-12-18T11:47:51.274Z,34.50
2022-12-18T11:50:44.834Z,45.70
2022-12-18T11:53:13.945Z,27.40
2022-12-18T11:56:07.959Z,38.40
2022-12-18T11:59:22.821Z,31.70
2022-12-18T12:01:56.719Z,29.50
2022-12-18T12:04:50.368Z,35.30
2022-12-18T12:08:04.127Z,28.70
2022-12-18T12:11:04.114Z,23.30
2022-12-18T12:13:45.163Z,24.50
2022-12-18T12:16:28.086Z,30.90
2022-12-18T12:19:09.033Z,26.20
2022-12-18T12:22:05.199Z,24.30
2022-12-18T12:24:54.856Z,31.60
2022-12-18T12:27:35.453Z,26.50
2022-12-18T12:30:10.550Z,23.90
2022-12-18T12:32:57.574Z,32.60
2022-12-18T12:35:37.265Z,42.10
2022-12-18T12:38:37.353Z,43.70
2022-12-18T12:41:31.034Z,36.30
2022-12-18T12:44:04.799Z,36.70
2022-12-18T12:46:40.728Z,40.30
2022-12-18T12:49:41.046Z,31.20
2022-12-18T12:52:18.034Z,21.60
2022-12-18T12:54:48.711Z,31.80
2022-12-18T12:58:18.008Z,36.80
2022-12-18T13:01:23.433Z,39.10
2022-12-18T13:04:02.419Z,34.80
2022-12-18T13:07:05.025Z,25.60
2022-12-18T13:09:36.779Z,38.50
2022-12-18T13:12:33.450Z,46.60
2022-12-18T13:15:22.930Z,44.90
2022-12-18T13:18:11.440Z,39.30
2022-12-18T13:21:10.090Z,30.40
2022-12-18T13:23:42.882Z,31.50
2022-12-18T13:26:19.896Z,27.70
2022-12-18T13:28:56.389Z,17.50
2022-12-18T13:31:30.958Z,25.30
2022-12-18T13:34:28.326Z,19.80
2022-12-18T13:37:34.282Z,33.50
2022-12-18T13:40:03.407Z,34.50
2022-12-18T13:43:00.535Z,34.40
2022-12-18T13:46:01.104Z,28.20
2022-12-18T13:48:37.337Z,30.70
2022-12-18T13:51:12.596Z,26.70
2022-12-18T13:53:53.215Z,22.80
2022-12-18T13:56:29.958Z,31.10
2022-12-18T13:59:38.423Z,29.80
2022-12-18T14:02:16.950Z,29.90
2022-12-18T14:04:48.400Z,30.30
2022-12-18T14:07:24.254Z,26.20
2022-12-18T14:10:12.181Z,31.10
2022-12-18T14:12:57.691Z,33.60
2022-12-18T14:15:45.549Z,20.80
2022-12-18T14:18:47.624Z,31.60
2022-12-18T14:21:33.889Z,37.90
2022-12-18T14:24:10.316Z,36.50
2022-12-18T14:26:39.168Z,29.40
2022-12-18T14:29:30.752Z,31.40
2022-12-18T14:32:19.676Z,36.40
2022-12-18T14:34:51.804Z,37.50
2022-12-18T14:37:28.465Z,42.80
2022-12-18T14:40:10.862Z,39.50
2022-12-18T14:45:41.028Z,27.20
2022-12-18T14:48:42.428Z,46.10
2022-12-18T14:51:14.049Z,40.20
2022-12-18T14:53:57.155Z,29.30
2022-12-18T14:56:30.219Z,36.30
2022-12-18T14:59:27.287Z,39.90
2022-12-18T15:02:09.857Z,45.40
2022-12-18T15:04:44.910Z,38.10
2022-12-18T15:07:23.881Z,30.90
2022-12-18T15:10:09.401Z,42.50
2022-12-18T15:12:45.663Z,40.50
2022-12-18T15:15:56.458Z,33.20
2022-12-18T15:18:34.247Z,36.20
2022-12-18T15:21:35.887Z,38.00
2022-12-18T15:24:04.961Z,38.10
2022-12-18T15:26:39.501Z,39.10
2022-12-18T15:29:22.901Z,39.30
2022-12-18T15:32:21.182Z,37.20
2022-12-18T15:34:49.714Z,35.30
2022-12-18T15:37:18.545Z,34.70
2022-12-18T15:39:47.201Z,36.50
2022-12-18T15:42:34.313Z,38.00
2022-12-18T15:45:02.884Z,29.30
2022-12-18T15:47:31.333Z,21.90
2022-12-18T15:49:59.961Z,32.30
2022-12-18T15:52:28.658Z,34.50
2022-12-18T15:55:16.813Z,27.20
2022-12-18T15:57:45.422Z,34.80
2022-12-18T16:00:15.148Z,29.10
2022-12-18T16:02:43.890Z,31.80
2022-12-18T16:05:18.930Z,30.10
2022-12-18T16:07:48.174Z,31.50
2022-12-18T16:10:21.582Z,35.30
2022-12-18T16:13:23.139Z,33.40
2022-12-18T16:15:51.787Z,26.60
2022-12-18T16:19:03.018Z,19.40
2022-12-18T16:21:51.518Z,30.50
2022-12-18T16:24:34.266Z,28.50
2022-12-18T16:32:25.383Z,32.20
2022-12-18T16:34:54.467Z,28.10
2022-12-18T16:37:51.823Z,30.80
2022-12-18T16:40:22.289Z,25.70
2022-12-18T16:43:18.277Z,26.40
2022-12-18T16:46:20.914Z,28.20
2022-12-18T16:48:50.293Z,29.70
2022-12-18T16:51:21.032Z,24.00
2022-12-18T16:53:51.750Z,25.60
2022-12-18T16:56:21.892Z,25.60
2022-12-18T16:59:05.238Z,25.50
2022-12-18T17:01:35.277Z,29.40
2022-12-18T17:04:07.096Z,21.20
2022-12-18T17:06:44.453Z,24.70
2022-12-18T17:09:16.762Z,24.70
2022-12-18T17:11:46.165Z,27.30
2022-12-18T17:14:21.508Z,15.20
2022-12-18T17:16:57.911Z,24.80
2022-12-18T17:19:41.515Z,32.50
2022-12-18T17:22:10.475Z,21.40
2022-12-18T17:24:39.468Z,27.30
2022-12-18T17:27:09.952Z,27.90
2022-12-18T17:29:47.353Z,25.70
2022-12-18T17:32:18.473Z,30.70
2022-12-18T17:34:51.149Z,27.60
2022-12-18T17:37:22.238Z,25.40
2022-12-18T17:39:53.876Z,23.40
2022-12-18T17:42:22.969Z,18.20
2022-12-18T17:44:56.123Z,19.10
2022-12-18T17:47:27.078Z,21.80
2022-12-18T17:49:58.509Z,26.70
2022-12-18T17:52:30.051Z,25.90
2022-12-18T17:55:00.825Z,14.40
2022-12-18T17:57:31.091Z,18.90
2022-12-18T18:00:00.468Z,19.30
2022-12-18T18:02:30.231Z,16.60
2022-12-18T18:05:01.543Z,17.60
2022-12-18T18:07:32.186Z,20.60
2022-12-18T18:10:03.291Z,26.50
2022-12-18T18:12:52.703Z,25.40
2022-12-18T18:15:24.933Z,15.80
2022-12-18T18:17:54.155Z,16.60
2022-12-18T18:20:23.079Z,17.80
2022-12-18T18:22:52.884Z,18.30
2022-12-18T18:25:22.326Z,19.40
2022-12-18T18:27:51.656Z,24.60
2022-12-18T18:30:21.758Z,17.20
2022-12-18T18:32:50.877Z,12.00
2022-12-18T18:35:52.407Z,13.90
2022-12-18T18:38:48.249Z,15.70
2022-12-18T18:41:19.469Z,12.30
2022-12-18T18:43:49.536Z,18.10
2022-12-18T18:46:23.672Z,14.10
2022-12-18T18:48:54.491Z,14.10
2022-12-18T18:51:24.092Z,14.80
2022-12-18T18:53:53.663Z,16.40
2022-12-18T18:59:13.662Z,13.60
2022-12-18T19:01:42.497Z,12.20
2022-12-18T19:04:11.387Z,18.10
2022-12-18T19:06:40.439Z,21.20
2022-12-18T19:09:09.913Z,23.20
2022-12-18T19:11:58.537Z,26.50
2022-12-18T19:14:27.195Z,14.70
2022-12-18T19:16:56.216Z,19.30
2022-12-18T19:19:25.939Z,14.40
2022-12-18T19:21:54.860Z,16.30
2022-12-18T19:24:23.652Z,13.60
2022-12-18T19:26:52.437Z,36.50
2022-12-18T19:29:25.280Z,19.90
2022-12-18T19:31:53.875Z,14.50
2022-12-18T19:34:22.793Z,16.30
2022-12-18T19:36:56.474Z,17.30
2022-12-18T19:39:28.429Z,18.80
2022-12-18T19:41:57.271Z,55.40
2022-12-18T19:44:25.892Z,50.20
2022-12-18T19:46:54.375Z,20.00
2022-12-18T19:49:23.026Z,19.00
2022-12-18T19:51:52.438Z,20.10
2022-12-18T19:54:21.273Z,37.90
2022-12-18T19:56:50.265Z,39.60
2022-12-18T19:59:18.855Z,14.30
2022-12-18T20:01:47.743Z,20.60
2022-12-18T20:04:16.731Z,15.20
2022-12-18T20:06:53.819Z,13.40
2022-12-18T20:09:22.575Z,11.80
2022-12-18T20:11:51.444Z,15.10
2022-12-18T20:14:22.981Z,19.10
2022-12-18T20:16:53.333Z,17.10
2022-12-18T20:19:22.795Z,19.10
2022-12-18T20:25:25.041Z,18.20
2022-12-18T20:27:53.785Z,20.20
2022-12-18T20:30:22.391Z,16.70
2022-12-18T20:32:51.051Z,21.00
2022-12-18T20:35:19.964Z,24.00
2022-12-18T20:37:50.884Z,18.90
2022-12-18T20:40:20.654Z,12.50
2022-12-18T20:42:49.325Z,22.90
2022-12-18T20:45:21.258Z,15.40
2022-12-18T20:47:49.931Z,15.10
2022-12-18T20:50:18.899Z,21.90
2022-12-18T20:52:48.916Z,20.80
2022-12-18T20:55:17.605Z,19.80
2022-12-18T20:57:46.151Z,19.60
2022-12-18T21:00:16.651Z,23.20
2022-12-18T21:02:50.027Z,20.10
2022-12-18T21:05:19.012Z,24.70
2022-12-18T21:07:47.678Z,16.70
2022-12-18T21:10:16.245Z,14.00
2022-12-18T21:12:53.029Z,21.40
2022-12-18T21:15:29.846Z,23.00
2022-12-18T21:17:59.115Z,14.20
2022-12-18T21:20:27.882Z,33.40
2022-12-18T21:22:57.353Z,23.90
2022-12-18T21:25:31.593Z,26.50
2022-12-18T21:28:03.468Z,31.00
2022-12-18T21:30:32.123Z,25.60
2022-12-18T21:33:00.808Z,22.30
2022-12-18T21:35:29.788Z,25.30
2022-12-18T21:38:00.728Z,24.40
2022-12-18T21:40:32.530Z,22.40
2022-12-18T21:43:19.777Z,22.50
2022-12-18T21:45:48.267Z,23.80
2022-12-18T21:48:16.814Z,20.40
2022-12-18T21:54:06.315Z,19.80
2022-12-18T21:56:58.742Z,17.80
2022-12-18T21:59:37.152Z,14.50
2022-12-18T22:02:18.780Z,16.90
2022-12-18T22:04:48.650Z,30.50
2022-12-18T22:07:17.612Z,22.00
2022-12-18T22:09:46.217Z,25.80
2022-12-18T22:12:35.606Z,22.00
2022-12-18T22:15:06.581Z,16.50
2022-12-18T22:17:35.122Z,21.10
2022-12-18T22:20:04.003Z,18.50
2022-12-18T22:22:32.583Z,25.30
2022-12-18T22:25:01.129Z,17.10
2022-12-18T22:27:29.760Z,17.40
2022-12-18T22:30:06.943Z,24.50
2022-12-18T22:32:36.542Z,24.00
2022-12-18T22:35:10.651Z,24.80
2022-12-18T22:37:44.234Z,21.40
2022-12-18T22:40:27.064Z,20.30
2022-12-18T22:42:56.269Z,22.00
2022-12-18T22:45:26.663Z,20.10
2022-12-18T22:47:55.313Z,20.70
2022-12-18T22:50:23.854Z,18.90
2022-12-18T22:52:52.356Z,16.70
2022-12-18T22:55:21.042Z,14.70
2022-12-18T22:57:52.850Z,22.00
2022-12-18T23:00:24.136Z,14.90
2022-12-18T23:02:59.682Z,21.30
2022-12-18T23:05:31.619Z,24.00
2022-12-18T23:08:00.425Z,15.60
2022-12-18T23:10:29.421Z,20.80
2022-12-18T23:12:57.964Z,16.40
2022-12-18T23:15:28.329Z,17.10
2022-12-18T23:18:00.972Z,16.60
2022-12-18T23:20:29.487Z,20.50
2022-12-18T23:22:58.046Z,21.10
2022-12-18T23:25:26.627Z,17.40
2022-12-18T23:27:55.131Z,15.50
2022-12-18T23:30:23.732Z,21.00
2022-12-18T23:32:52.249Z,20.00
2022-12-18T23:35:20.819Z,20.70
2022-12-18T23:37:59.369Z,19.90
2022-12-18T23:40:30.025Z,18.20
2022-12-18T23:43:00.481Z,21.30
2022-12-18T23:45:29.154Z,23.10
2022-12-18T23:47:57.671Z,18.40
2022-12-18T23:50:29.429Z,17.10
2022-12-18T23:53:00.786Z,19.80
2022-12-18T23:55:39.950Z,24.80
2022-12-18T23:58:19.800Z,21.90
